createdAt,value
2023-04-17T03:56:43.115Z,13.36
2023-04-17T03:59:11.214Z,13.55
2023-04-17T04:01:39.736Z,12.82
2023-04-17T04:04:08.144Z,12.06
2023-04-17T04:06:37.778Z,12.36
2023-04-17T04:09:05.946Z,12.92
2023-04-17T04:11:33.899Z,13.21
2023-04-17T04:14:03.332Z,14.52
2023-04-17T04:16:48.849Z,11.78
2023-04-17T04:19:32.820Z,12.31
2023-04-17T04:22:07.095Z,14.48
2023-04-17T04:24:37.459Z,12.60
2023-04-17T04:27:07.587Z,14.45
2023-04-17T04:29:40.287Z,13.43
2023-04-17T04:32:13.818Z,13.11
2023-04-17T04:34:42.955Z,14.45
2023-04-17T04:37:18.138Z,11.63
2023-04-17T04:39:54.003Z,14.44
2023-04-17T04:42:22.575Z,13.99
2023-04-17T06:32:54.187Z,11.31
2023-04-17T06:35:37.145Z,13.21
2023-04-17T06:38:21.683Z,12.96
2023-04-17T06:41:22.466Z,14.62
2023-04-17T06:44:47.079Z,12.51
2023-04-17T06:47:04.391Z,13.74
2023-04-17T06:49:40.326Z,12.25
2023-04-17T06:56:40.388Z,11.18
2023-04-17T07:18:25.617Z,13.79
2023-04-17T07:31:11.640Z,12.38
2023-04-17T07:33:59.252Z,14.63
2023-04-17T07:40:22.141Z,13.14
2023-04-17T07:43:00.018Z,12.80
2023-04-17T07:48:11.972Z,14.43
2023-04-17T07:50:40.411Z,14.40
2023-04-17T07:53:14.813Z,14.27
2023-04-17T07:55:42.799Z,14.03
2023-04-17T07:58:11.454Z,13.17
2023-04-17T08:00:39.245Z,12.52
2023-04-17T08:03:07.401Z,13.15
2023-04-17T08:05:36.720Z,13.16
2023-04-17T08:08:05.685Z,14.35
2023-04-17T08:10:33.405Z,15.13
2023-04-17T08:13:01.652Z,14.92
2023-04-17T08:15:29.634Z,13.88
2023-04-17T08:17:58.289Z,15.74
2023-04-17T08:20:27.272Z,14.67
2023-04-17T08:22:56.412Z,15.22
2023-04-17T08:25:24.212Z,14.91
2023-04-17T08:27:52.034Z,13.88
2023-04-17T08:30:20.284Z,15.89
2023-04-17T08:32:48.864Z,15.08
2023-04-17T08:35:17.288Z,15.28
2023-04-17T08:37:46.892Z,16.18
2023-04-17T08:40:17.428Z,15.79
2023-04-17T08:42:47.859Z,16.04
2023-04-17T08:45:17.779Z,16.80
2023-04-17T08:47:46.118Z,16.02
2023-04-17T08:50:15.032Z,16.61
2023-04-17T08:52:43.744Z,17.18
2023-04-17T08:55:12.017Z,17.46
2023-04-17T09:15:02.395Z,18.81
2023-04-17T09:17:37.863Z,19.17
2023-04-17T09:20:11.853Z,17.93
2023-04-17T09:22:41.251Z,19.31
2023-04-17T09:25:16.932Z,19.16
2023-04-17T09:27:44.781Z,19.27
2023-04-17T09:30:14.703Z,18.81
2023-04-17T09:32:42.619Z,19.85
2023-04-17T09:35:10.695Z,20.30
2023-04-17T09:37:51.926Z,19.55
2023-04-17T09:40:20.457Z,20.16
2023-04-17T09:42:58.402Z,21.17
2023-04-17T09:45:33.285Z,20.29
2023-04-17T09:48:01.929Z,20.99
2023-04-17T09:50:30.224Z,23.09
2023-04-17T09:52:58.949Z,20.68
2023-04-17T09:55:29.489Z,24.22
2023-04-17T09:57:58.361Z,23.26
2023-04-17T10:00:30.010Z,25.20
2023-04-17T10:02:59.712Z,25.81
2023-04-17T10:05:29.378Z,26.46
2023-04-17T10:07:58.190Z,25.10
2023-04-17T10:10:46.228Z,24.51
2023-04-17T10:13:15.019Z,25.83
2023-04-17T10:15:49.841Z,25.91
2023-04-17T10:18:23.581Z,25.96
2023-04-17T10:20:59.658Z,25.87
2023-04-17T10:24:51.139Z,25.00
2023-04-17T10:37:58.094Z,26.62
2023-04-17T10:47:50.120Z,32.27
2023-04-17T10:50:18.001Z,31.02
2023-04-17T10:52:46.214Z,30.39
2023-04-17T10:55:17.108Z,29.50
2023-04-17T10:58:17.387Z,29.75
2023-04-17T11:00:52.503Z,28.94
2023-04-17T11:03:21.860Z,28.78
2023-04-17T11:05:55.132Z,29.16
2023-04-17T11:08:29.570Z,28.28
2023-04-17T11:14:42.811Z,30.52
2023-04-17T11:17:14.010Z,29.56
2023-04-17T11:19:45.147Z,31.26
2023-04-17T11:22:14.371Z,33.59
2023-04-17T11:24:44.297Z,34.64
2023-04-17T11:28:06.451Z,32.12
2023-04-17T11:34:27.943Z,32.13
2023-04-17T11:37:01.644Z,31.65
2023-04-17T11:39:31.259Z,31.00
2023-04-17T11:41:59.496Z,29.97
2023-04-17T11:44:27.729Z,30.15
2023-04-17T11:46:56.504Z,29.43
2023-04-17T11:49:29.403Z,30.26
2023-04-17T11:52:00.277Z,28.66
2023-04-17T11:54:28.791Z,26.73
2023-04-17T11:57:01.560Z,27.36
2023-04-17T11:59:37.764Z,27.59
2023-04-17T12:02:13.396Z,28.07
2023-04-17T12:04:42.778Z,25.76
2023-04-17T12:07:11.042Z,26.91
2023-04-17T12:21:28.849Z,23.54
2023-04-17T12:23:56.868Z,24.29
2023-04-17T12:26:25.310Z,24.53
2023-04-17T12:28:56.107Z,24.34
2023-04-17T12:31:24.055Z,23.48
2023-04-17T12:33:52.495Z,23.61
2023-04-17T12:36:22.599Z,23.84
2023-04-17T12:38:51.790Z,24.20
2023-04-17T12:41:20.303Z,23.70
2023-04-17T12:43:49.798Z,22.73
2023-04-17T12:46:17.820Z,21.50
2023-04-17T12:48:45.636Z,23.08
2023-04-17T12:51:13.523Z,23.57
2023-04-17T12:53:41.493Z,22.24
2023-04-17T12:56:10.729Z,23.69
2023-04-17T12:58:39.510Z,23.71
2023-04-17T13:01:07.505Z,21.53
2023-04-17T13:03:36.125Z,23.58
2023-04-17T13:06:04.287Z,21.64
2023-04-17T13:08:32.013Z,21.19
2023-04-17T13:10:59.936Z,22.78
2023-04-17T13:13:29.125Z,23.19
2023-04-17T13:16:01.953Z,22.57
2023-04-17T13:18:30.634Z,22.98
2023-04-17T13:21:03.035Z,22.04
2023-04-17T13:23:31.357Z,21.77
2023-04-17T13:25:59.245Z,19.98
2023-04-17T13:28:26.930Z,22.23
2023-04-17T13:30:56.229Z,22.44
2023-04-17T13:33:53.803Z,22.53
2023-04-17T13:36:21.481Z,21.21
2023-04-17T13:38:49.561Z,22.54
2023-04-17T13:41:17.392Z,22.21
2023-04-17T13:43:45.113Z,22.52
2023-04-17T13:46:16.418Z,22.26
2023-04-17T13:48:46.640Z,20.47
2023-04-17T13:51:15.288Z,22.26
2023-04-17T13:53:43.196Z,22.22
2023-04-17T13:56:11.996Z,22.41
2023-04-17T13:58:40.569Z,22.36
2023-04-17T14:01:08.900Z,22.30
2023-04-17T14:03:41.649Z,22.18
2023-04-17T14:06:11.034Z,22.15
2023-04-17T14:08:39.484Z,22.15
2023-04-17T14:11:07.210Z,22.08
2023-04-17T14:13:36.443Z,21.89
2023-04-17T14:16:05.249Z,21.44
2023-04-17T14:18:33.308Z,21.44
2023-04-17T14:21:03.474Z,21.73
2023-04-17T14:23:32.690Z,21.64
2023-04-17T14:26:02.751Z,20.99
2023-04-17T14:35:33.863Z,19.93
2023-04-17T14:38:04.974Z,21.57
2023-04-17T14:40:32.827Z,20.88
2023-04-17T14:43:00.989Z,21.70
2023-04-17T14:45:28.889Z,20.48
2023-04-17T14:47:56.687Z,21.63
2023-04-17T14:50:24.831Z,21.51
2023-04-17T14:52:55.600Z,21.64
2023-04-17T14:55:24.801Z,21.72
2023-04-17T14:57:57.928Z,21.80
2023-04-17T15:00:25.976Z,21.80
2023-04-17T15:02:55.250Z,21.12
2023-04-17T15:05:23.303Z,21.50
2023-04-17T15:07:51.353Z,20.88
2023-04-17T15:10:19.293Z,20.72
2023-04-17T15:13:20.189Z,21.31
2023-04-17T15:15:50.829Z,21.29
2023-04-17T15:18:30.607Z,18.97
2023-04-17T15:21:01.131Z,19.54
2023-04-17T15:23:29.877Z,21.07
2023-04-17T15:25:58.745Z,21.33
2023-04-17T15:28:26.677Z,20.92
2023-04-17T15:30:58.317Z,21.20
2023-04-17T15:33:26.136Z,20.07
2023-04-17T15:35:58.588Z,21.42
2023-04-17T15:38:26.431Z,19.88
2023-04-17T15:40:58.918Z,20.97
2023-04-17T15:43:29.238Z,21.48
2023-04-17T15:45:59.516Z,21.36
2023-04-17T15:48:27.517Z,20.70
2023-04-17T15:50:55.702Z,20.36
2023-04-17T15:53:23.555Z,20.99
2023-04-17T15:55:51.396Z,19.32
2023-04-17T15:58:19.793Z,20.43
2023-04-17T16:00:47.492Z,20.81
2023-04-17T16:03:20.993Z,17.87
2023-04-17T16:05:55.138Z,18.27
2023-04-17T16:12:21.863Z,18.98
2023-04-17T16:15:12.407Z,17.33
2023-04-17T16:30:36.918Z,19.10
2023-04-17T16:33:06.460Z,19.74
2023-04-17T16:35:38.537Z,19.08
2023-04-17T16:41:02.068Z,19.64
2023-04-17T16:47:02.983Z,18.56
2023-04-17T16:49:29.555Z,19.54
2023-04-17T16:54:43.128Z,19.51
2023-04-17T17:15:50.600Z,18.68
2023-04-17T17:30:31.341Z,18.88
2023-04-17T17:32:59.372Z,18.49
2023-04-17T17:35:27.514Z,19.04
2023-04-17T17:38:12.173Z,18.45
2023-04-17T17:40:40.161Z,17.25
2023-04-17T17:43:07.805Z,18.90
2023-04-17T17:45:37.293Z,18.09
2023-04-17T17:48:06.133Z,17.63
2023-04-17T17:50:36.691Z,18.08
2023-04-17T17:53:04.959Z,18.03
2023-04-17T17:55:34.291Z,18.65
2023-04-17T17:58:07.542Z,17.49
2023-04-17T18:00:37.819Z,17.87
2023-04-17T22:18:34.479Z,14.42
